Time;durP1;ratioP1;P1;durP2;ratioP2;P2;SDS_P1;SDS_P2;PMS_P1;PMS_P2;Temp;Humidity;BMP_temperature;BMP_pressure;BME280_temperature;BME280_humidity;BME280_pressure;Samples;Min_cycle;Max_cycle;Signal;HPM_P1;HPM_P2
2022/08/22 00:02:05;;;;;;;2.30;1.93;;;13.20;99.90;13.20;100580.00;;;;4921272;28;92922;-60
2022/08/22 00:04:52;;;;;;;3.43;2.17;;;13.20;99.90;13.20;100570.00;;;;4924288;28;94627;-60
2022/08/22 00:08:06;;;;;;;1.80;1.70;;;13.20;99.90;13.20;100564.00;;;;4926455;28;100517;-60
2022/08/22 00:11:04;;;;;;;6.23;2.60;;;13.10;99.90;13.10;100572.00;;;;4922972;28;93075;-60
2022/08/22 00:13:54;;;;;;;2.80;2.33;;;13.10;99.90;13.10;100568.00;;;;4930900;28;93851;-60
2022/08/22 00:16:27;;;;;;;2.67;2.23;;;13.10;99.90;13.00;100569.00;;;;4927699;28;95435;-59
2022/08/22 00:19:20;;;;;;;2.63;2.17;;;13.10;99.90;13.00;100562.00;;;;4926343;28;92683;-60
2022/08/22 00:22:02;;;;;;;2.87;1.53;;;13.00;99.90;13.00;100563.00;;;;4923822;28;92858;-60
2022/08/22 00:24:40;;;;;;;2.77;2.00;;;13.00;99.90;13.00;100565.00;;;;4921842;28;96583;-59
2022/08/22 00:27:16;;;;;;;2.20;2.00;;;13.00;99.90;13.00;100565.00;;;;4939643;28;92944;-60
2022/08/22 00:29:49;;;;;;;1.77;1.67;;;13.00;99.90;13.00;100566.00;;;;4921265;28;92887;-61
2022/08/22 00:32:36;;;;;;;1.63;1.53;;;12.90;99.90;12.90;100572.00;;;;4926385;28;110553;-60
2022/08/22 00:35:28;;;;;;;2.83;1.37;;;12.90;99.90;12.90;100566.00;;;;4926879;28;110890;-61
2022/08/22 00:38:11;;;;;;;2.73;1.90;;;12.90;99.90;12.90;100569.00;;;;4924097;28;92824;-60
2022/08/22 00:41:03;;;;;;;1.63;1.53;;;12.90;99.90;12.90;100576.00;;;;4927667;28;94209;-60
2022/08/22 00:43:59;;;;;;;1.57;1.47;;;12.90;99.90;12.80;100577.00;;;;4930482;28;93260;-59
2022/08/22 00:47:16;;;;;;;2.50;1.63;;;12.90;99.90;12.80;100577.00;;;;4924386;28;93778;-60
2022/08/22 00:50:11;;;;;;;2.33;2.13;;;12.80;99.90;12.80;100577.00;;;;4926294;28;92729;-60
2022/08/22 00:53:33;;;;;;;1.90;1.80;;;12.80;99.90;12.70;100574.00;;;;4921619;28;92673;-60
2022/08/22 00:56:29;;;;;;;2.57;1.47;;;12.80;99.90;12.60;100574.00;;;;4925285;28;93804;-60
2022/08/22 00:59:12;;;;;;;2.67;1.77;;;12.70;99.90;12.60;100574.00;;;;4930618;28;99739;-60
2022/08/22 01:01:56;;;;;;;2.17;1.30;;;12.70;99.90;12.60;100573.00;;;;4926684;28;94650;-60
2022/08/22 01:04:56;;;;;;;3.20;1.70;;;12.60;99.90;12.60;100572.00;;;;4924394;28;92686;-61
2022/08/22 01:08:08;;;;;;;1.97;1.60;;;12.60;99.90;12.50;100583.00;;;;4930169;28;107892;-60
2022/08/22 01:11:04;;;;;;;2.43;2.23;;;12.60;99.90;12.50;100575.00;;;;4928623;28;94118;-60
2022/08/22 01:14:15;;;;;;;2.17;1.80;;;12.50;99.90;12.40;100577.00;;;;4919709;28;92843;-60
2022/08/22 01:16:59;;;;;;;2.37;1.60;;;12.50;99.90;12.40;100583.00;;;;4924562;28;93105;-60
2022/08/22 01:19:58;;;;;;;2.47;1.27;;;12.40;99.90;12.40;100582.00;;;;4926288;28;94015;-60
2022/08/22 01:23:06;;;;;;;2.80;1.87;;;12.40;99.90;12.30;100588.00;;;;4916288;28;92917;-61
2022/08/22 01:26:31;;;;;;;1.80;1.70;;;12.40;99.90;12.30;100595.00;;;;4922397;28;101005;-60
2022/08/22 01:29:25;;;;;;;3.90;2.77;;;12.30;99.90;12.20;100580.00;;;;4931488;28;99309;-59
2022/08/22 01:32:05;;;;;;;2.00;1.83;;;12.30;99.90;12.20;100582.00;;;;4922255;28;99369;-59
2022/08/22 01:34:53;;;;;;;5.10;1.97;;;12.40;99.90;12.20;100593.00;;;;4924455;28;112607;-59
2022/08/22 01:37:57;;;;;;;1.50;1.40;;;12.20;99.90;12.20;100593.00;;;;4928192;28;92799;-60
2022/08/22 01:40:29;;;;;;;2.37;1.60;;;12.20;99.90;12.20;100591.00;;;;4925766;28;93873;-59
2022/08/22 01:43:24;;;;;;;1.90;1.70;;;12.20;99.90;12.20;100588.00;;;;4927665;28;92958;-59
2022/08/22 01:46:20;;;;;;;4.20;2.50;;;12.20;99.90;12.10;100583.00;;;;4928392;28;93723;-60
2022/08/22 01:48:55;;;;;;;2.23;2.03;;;12.20;99.90;12.10;100586.00;;;;4930633;28;93278;-60
2022/08/22 01:51:57;;;;;;;1.77;1.67;;;12.10;99.90;12.10;100581.00;;;;4925515;28;93452;-61
2022/08/22 01:54:25;;;;;;;1.60;1.50;;;12.10;99.90;12.10;100579.00;;;;4919915;28;93716;-58
2022/08/22 01:57:01;;;;;;;1.70;1.60;;;12.10;99.90;12.20;100575.00;;;;4919181;28;93785;-61
2022/08/22 01:59:53;;;;;;;2.53;1.93;;;12.20;99.90;12.20;100586.00;;;;4914602;28;92164;-60
2022/08/22 02:02:58;;;;;;;3.10;1.57;;;12.20;99.90;12.20;100588.00;;;;4918392;28;99785;-60
2022/08/22 02:05:35;;;;;;;1.50;1.40;;;12.20;99.90;12.20;100583.00;;;;4924694;28;94070;-60
2022/08/22 02:08:15;;;;;;;4.00;1.97;;;12.20;99.90;12.10;100574.00;;;;4917840;28;93887;-61
2022/08/22 02:11:11;;;;;;;2.00;1.80;;;12.20;99.90;12.10;100591.00;;;;4922643;28;109655;-61
2022/08/22 02:14:05;;;;;;;2.00;1.47;;;12.20;99.90;12.10;100571.00;;;;4932102;28;92962;-61
2022/08/22 02:17:12;;;;;;;3.50;1.97;;;12.20;99.90;12.10;100583.00;;;;4923929;28;106551;-60
2022/08/22 02:19:50;;;;;;;1.50;1.40;;;12.20;99.90;12.20;100581.00;;;;4916916;28;93480;-61
2022/08/22 02:23:05;;;;;;;2.07;1.93;;;12.20;99.90;12.10;100589.00;;;;4917487;28;92932;-61
2022/08/22 02:25:48;;;;;;;2.13;1.63;;;12.20;99.90;12.20;100583.00;;;;4938383;28;92825;-61
2022/08/22 02:28:24;;;;;;;1.70;1.60;;;12.20;99.90;12.20;100578.00;;;;4921849;28;93124;-59
2022/08/22 02:30:55;;;;;;;3.00;1.90;;;12.20;99.90;12.20;100589.00;;;;4919485;28;92868;-60
2022/08/22 02:33:45;;;;;;;5.40;1.70;;;12.20;99.90;12.20;100571.00;;;;4925690;28;92858;-61
2022/08/22 02:36:20;;;;;;;1.37;1.27;;;12.20;99.90;12.30;100581.00;;;;4938170;28;99784;-60
2022/08/22 02:39:33;;;;;;;2.60;1.37;;;12.20;99.90;12.20;100580.00;;;;4922250;28;93759;-61
2022/08/22 02:42:33;;;;;;;2.33;1.60;;;12.30;99.90;12.30;100582.00;;;;4922098;28;95201;-61
2022/08/22 02:45:18;;;;;;;2.00;1.53;;;12.30;99.90;12.30;100587.00;;;;4918068;28;93408;-61
2022/08/22 02:47:55;;;;;;;1.60;1.40;;;12.30;99.90;12.30;100576.00;;;;4937765;28;96450;-61
2022/08/22 02:50:59;;;;;;;1.60;1.23;;;12.30;99.90;12.30;100583.00;;;;4923155;28;93666;-61
2022/08/22 02:53:52;;;;;;;1.93;1.77;;;12.30;99.90;12.30;100590.00;;;;4938618;28;115159;-61
2022/08/22 02:56:36;;;;;;;1.73;1.63;;;12.30;99.90;12.20;100580.00;;;;4924881;28;92113;-60
2022/08/22 02:59:23;;;;;;;2.00;1.70;;;12.30;99.90;12.20;100590.00;;;;4944339;28;92955;-61
2022/08/22 03:01:50;;;;;;;2.50;1.50;;;12.30;99.90;12.30;100581.00;;;;4928251;28;92805;-60
2022/08/22 03:04:30;;;;;;;1.37;1.30;;;12.50;99.90;12.20;100586.00;;;;4925082;28;116495;-61
2022/08/22 03:07:21;;;;;;;1.73;1.63;;;12.20;99.90;12.20;100589.00;;;;4925342;28;92942;-60
2022/08/22 03:10:16;;;;;;;1.27;1.13;;;12.20;99.90;12.20;100589.00;;;;4923258;28;92786;-61
2022/08/22 03:13:11;;;;;;;1.43;1.33;;;12.20;99.90;12.20;100576.00;;;;4932241;28;94217;-61
2022/08/22 03:16:01;;;;;;;1.70;1.40;;;12.20;99.90;12.20;100577.00;;;;4916556;28;92980;-61
2022/08/22 03:18:55;;;;;;;1.60;1.50;;;12.20;99.90;12.10;100570.00;;;;4924181;28;92780;-60
2022/08/22 03:21:46;;;;;;;1.90;1.70;;;12.20;99.90;12.10;100573.00;;;;4913740;28;92897;-61
2022/08/22 03:24:32;;;;;;;2.10;1.67;;;12.20;99.90;12.10;100577.00;;;;4929211;28;92528;-61
2022/08/22 03:27:27;;;;;;;1.80;1.57;;;12.20;99.90;12.10;100577.00;;;;4934293;28;111234;-61
2022/08/22 03:29:59;;;;;;;1.27;1.13;;;12.20;99.90;12.20;100575.00;;;;4934414;28;92915;-60
2022/08/22 03:32:58;;;;;;;2.00;1.57;;;12.10;99.90;12.10;100580.00;;;;4940887;28;101333;-60
2022/08/22 03:35:45;;;;;;;1.90;1.77;;;12.30;99.90;12.20;100574.00;;;;4920294;28;94014;-57
2022/08/22 03:38:39;;;;;;;1.33;1.20;;;12.20;99.90;12.20;100575.00;;;;4928891;28;105629;-61
2022/08/22 03:42:02;;;;;;;2.30;1.63;;;12.20;99.90;12.10;100572.00;;;;4946178;28;93170;-61
2022/08/22 03:45:28;;;;;;;1.60;1.50;;;12.20;99.90;12.10;100576.00;;;;4878059;28;94053;-62
2022/08/22 03:48:28;;;;;;;1.47;1.37;;;12.20;99.90;12.10;100569.00;;;;4898901;28;93340;-61
2022/08/22 03:51:18;;;;;;;1.63;1.53;;;12.10;99.90;12.10;100579.00;;;;4924717;28;116114;-61
2022/08/22 03:54:09;;;;;;;1.67;1.57;;;12.10;99.90;12.10;100577.00;;;;4925580;28;92381;-60
2022/08/22 03:57:20;;;;;;;1.77;1.30;;;12.10;99.90;12.10;100572.00;;;;4932383;28;93064;-60
2022/08/22 04:00:36;;;;;;;1.40;1.23;;;12.10;99.90;12.10;100587.00;;;;4925271;28;114751;-61
2022/08/22 04:03:34;;;;;;;1.13;1.03;;;12.20;99.90;12.10;100581.00;;;;4868120;28;94054;-61
2022/08/22 04:06:44;;;;;;;2.60;1.70;;;12.20;99.90;12.10;100570.00;;;;4923230;28;93296;-61
2022/08/22 04:09:30;;;;;;;1.73;1.63;;;12.20;99.90;12.10;100586.00;;;;4927700;28;92731;-61
2022/08/22 04:12:29;;;;;;;1.67;1.43;;;12.10;99.90;12.10;100580.00;;;;4920340;28;93938;-61
2022/08/22 04:15:23;;;;;;;1.13;1.13;;;12.20;99.90;12.20;100586.00;;;;4924016;28;92950;-60
2022/08/22 04:18:15;;;;;;;1.47;1.37;;;12.20;99.90;12.20;100593.00;;;;4930038;28;92736;-60
2022/08/22 04:21:20;;;;;;;1.83;1.67;;;12.20;99.90;12.20;100598.00;;;;4909345;28;92770;-60
2022/08/22 04:25:14;;;;;;;1.20;1.07;;;12.30;99.90;12.20;100590.00;;;;4926381;28;111584;-59
2022/08/22 04:28:15;;;;;;;1.43;1.33;;;12.30;99.90;12.30;100599.00;;;;4863139;28;93180;-58
2022/08/22 04:30:50;;;;;;;1.30;1.20;;;12.30;99.90;12.40;100593.00;;;;4891026;28;100561;-61
2022/08/22 04:33:32;;;;;;;1.60;1.37;;;12.30;99.90;12.40;100609.00;;;;4918688;28;94009;-61
2022/08/22 04:36:19;;;;;;;2.63;1.80;;;12.30;99.90;12.40;100603.00;;;;4920205;28;94081;-60
2022/08/22 04:39:04;;;;;;;1.13;1.03;;;12.40;99.90;12.40;100605.00;;;;4931314;28;92966;-60
2022/08/22 04:41:48;;;;;;;1.40;1.30;;;12.40;99.90;12.40;100613.00;;;;4930236;28;92804;-60
2022/08/22 04:44:43;;;;;;;1.70;1.60;;;12.70;99.90;12.50;100610.00;;;;4922935;28;92814;-61
2022/08/22 04:47:41;;;;;;;2.80;1.90;;;12.40;99.90;12.50;100611.00;;;;4900590;28;92936;-60
2022/08/22 04:50:20;;;;;;;2.07;1.77;;;12.50;99.90;12.60;100607.00;;;;4920139;28;93536;-61
2022/08/22 04:53:24;;;;;;;1.70;1.13;;;12.50;99.90;12.50;100610.00;;;;4932375;28;92088;-61
2022/08/22 04:56:06;;;;;;;2.47;1.77;;;12.50;99.90;12.60;100603.00;;;;4946703;28;95721;-61
2022/08/22 04:59:03;;;;;;;1.80;1.70;;;12.50;99.90;12.60;100612.00;;;;4927615;28;107165;-62
2022/08/22 05:01:45;;;;;;;1.33;1.23;;;12.60;99.90;12.70;100602.00;;;;4923560;28;94041;-59
2022/08/22 05:04:21;;;;;;;1.00;0.90;;;12.60;99.90;12.70;100610.00;;;;4922556;28;93427;-60
2022/08/22 05:06:56;;;;;;;2.80;1.90;;;12.60;99.90;12.70;100612.00;;;;4933022;28;97860;-61
2022/08/22 05:09:36;;;;;;;1.53;1.43;;;12.70;99.90;12.80;100609.00;;;;4929860;28;93506;-60
2022/08/22 05:12:08;;;;;;;2.43;1.57;;;12.70;99.90;12.80;100611.00;;;;4919356;28;93040;-60
2022/08/22 05:15:25;;;;;;;2.17;1.87;;;12.80;99.90;12.90;100616.00;;;;4932184;28;92732;-61
2022/08/22 05:17:55;;;;;;;1.80;1.70;;;12.80;99.90;13.00;100609.00;;;;4925356;28;92949;-61
2022/08/22 05:20:25;;;;;;;2.10;1.27;;;12.90;99.90;13.10;100609.00;;;;4930232;28;116495;-62
2022/08/22 05:22:57;;;;;;;1.97;1.57;;;13.00;99.90;13.20;100621.00;;;;4921961;28;115466;-61
2022/08/22 05:25:30;;;;;;;1.80;1.70;;;13.10;99.90;13.20;100623.00;;;;4922209;28;100828;-61
2022/08/22 05:28:27;;;;;;;1.57;1.47;;;13.10;99.90;13.30;100625.00;;;;4921412;28;93645;-61
2022/08/22 05:30:53;;;;;;;1.60;1.40;;;13.20;99.90;13.30;100632.00;;;;4928729;28;92962;-61
2022/08/22 05:33:40;;;;;;;6.47;2.10;;;13.30;99.90;13.40;100635.00;;;;4912821;28;94415;-59
2022/08/22 05:36:19;;;;;;;3.63;2.07;;;13.30;99.90;13.50;100637.00;;;;4926706;28;93016;-59
2022/08/22 05:38:58;;;;;;;2.40;1.83;;;13.40;99.90;13.50;100635.00;;;;4928359;28;93315;-60
2022/08/22 05:41:30;;;;;;;2.93;1.80;;;13.50;99.90;13.60;100632.00;;;;4929040;28;93584;-61
2022/08/22 05:43:55;;;;;;;4.47;1.83;;;13.50;99.90;13.70;100638.00;;;;4924901;28;93781;-58
2022/08/22 05:46:40;;;;;;;2.13;1.50;;;13.60;99.90;13.80;100644.00;;;;4917984;28;110418;-59
2022/08/22 05:49:19;;;;;;;2.63;2.13;;;13.70;99.90;13.90;100649.00;;;;4929199;28;92855;-59
2022/08/22 05:52:00;;;;;;;2.03;1.50;;;13.80;99.90;13.90;100651.00;;;;4923994;28;93912;-60
2022/08/22 05:54:32;;;;;;;2.37;1.87;;;13.80;99.90;14.00;100643.00;;;;4929730;28;94038;-61
2022/08/22 05:57:22;;;;;;;1.57;1.47;;;13.90;99.90;14.10;100651.00;;;;4924674;28;93137;-61
2022/08/22 05:59:59;;;;;;;2.17;1.97;;;14.00;99.90;14.20;100652.00;;;;4928780;28;101722;-61
2022/08/22 06:02:58;;;;;;;2.50;2.20;;;14.00;99.90;14.20;100654.00;;;;4928219;28;93742;-61
2022/08/22 06:05:28;;;;;;;1.77;1.47;;;14.10;99.90;14.30;100656.00;;;;4932571;28;93691;-61
2022/08/22 06:08:06;;;;;;;1.27;1.17;;;14.30;99.90;14.40;100655.00;;;;4920991;28;93081;-61
2022/08/22 06:10:51;;;;;;;7.67;1.87;;;14.20;99.90;14.40;100662.00;;;;4944713;28;92915;-61
2022/08/22 06:13:31;;;;;;;2.30;1.70;;;14.30;99.90;14.50;100659.00;;;;4922260;28;92278;-61
2022/08/22 06:16:15;;;;;;;6.90;2.67;;;14.40;99.90;14.60;100660.00;;;;4917554;28;93017;-60
2022/08/22 06:18:43;;;;;;;4.00;1.77;;;14.50;99.90;14.70;100675.00;;;;4928254;28;92662;-60
2022/08/22 06:28:54;;;;;;;2.27;2.10;;;14.80;99.90;15.00;100671.00;;;;4896314;28;93665;-58
2022/08/22 06:31:27;;;;;;;2.23;2.03;;;14.90;99.90;15.10;100674.00;;;;4904415;28;92605;-62
2022/08/22 06:34:04;;;;;;;3.23;2.20;;;15.00;99.90;15.20;100668.00;;;;4891795;28;108911;-59
2022/08/22 06:36:32;;;;;;;8.57;2.13;;;15.10;99.90;15.40;100665.00;;;;4890898;28;92960;-61
2022/08/22 06:39:05;;;;;;;1.90;1.73;;;15.20;99.90;15.50;100672.00;;;;4908601;28;92436;-61
2022/08/22 06:41:36;;;;;;;2.00;1.70;;;15.40;99.90;15.60;100673.00;;;;4894506;28;92933;-61
2022/08/22 06:44:04;;;;;;;2.60;2.40;;;15.40;99.90;15.70;100682.00;;;;4891505;28;93482;-61
2022/08/22 06:46:34;;;;;;;3.13;2.85;;;15.50;99.90;15.80;100672.00;;;;4888126;28;123593;-61
2022/08/22 06:49:02;;;;;;;2.93;2.43;;;15.70;99.90;16.00;100673.00;;;;4893937;28;93158;-60
2022/08/22 06:51:29;;;;;;;3.08;2.70;;;15.80;99.90;16.10;100678.00;;;;4890484;28;93067;-60
2022/08/22 06:54:00;;;;;;;2.70;2.50;;;15.90;99.90;16.20;100673.00;;;;4904182;28;93026;-60
2022/08/22 06:56:37;;;;;;;3.78;2.97;;;16.00;99.90;16.30;100672.00;;;;4888059;28;92935;-60
2022/08/22 06:59:15;;;;;;;3.87;2.63;;;16.20;99.90;16.50;100679.00;;;;4894023;28;92841;-61
2022/08/22 07:02:01;;;;;;;3.25;2.67;;;16.30;99.90;16.60;100670.00;;;;4906645;28;96392;-61
2022/08/22 07:04:27;;;;;;;6.45;2.50;;;16.40;99.90;16.80;100677.00;;;;4892106;28;92205;-60
2022/08/22 07:06:57;;;;;;;3.90;2.65;;;16.50;99.90;16.90;100677.00;;;;4893025;28;92884;-60
2022/08/22 07:09:28;;;;;;;2.75;2.53;;;16.70;99.90;17.00;100681.00;;;;4892546;28;92767;-61
2022/08/22 07:11:56;;;;;;;2.97;2.17;;;16.80;99.90;17.10;100671.00;;;;4893532;28;93941;-61
2022/08/22 07:14:38;;;;;;;3.75;3.05;;;17.00;99.90;17.20;100669.00;;;;4901290;28;105165;-61
2022/08/22 07:17:08;;;;;;;2.50;2.13;;;17.10;99.90;17.40;100683.00;;;;4889201;28;93255;-61
2022/08/22 07:19:40;;;;;;;2.92;2.42;;;17.20;99.90;17.50;100683.00;;;;4894069;28;92720;-61
2022/08/22 07:22:15;;;;;;;4.13;2.17;;;17.30;99.90;17.70;100681.00;;;;4888994;28;100406;-60
2022/08/22 07:24:51;;;;;;;4.07;2.70;;;17.50;99.90;17.80;100686.00;;;;4893646;28;93983;-61
2022/08/22 07:28:00;;;;;;;3.67;2.97;;;17.60;99.90;17.90;100679.00;;;;4901792;28;93383;-59
2022/08/22 07:30:54;;;;;;;3.65;2.28;;;17.70;99.90;18.00;100680.00;;;;4892185;28;92360;-61
2022/08/22 07:33:31;;;;;;;2.25;1.92;;;17.80;99.90;18.20;100686.00;;;;4892150;28;92986;-61
2022/08/22 07:36:30;;;;;;;2.53;2.33;;;18.00;99.90;18.30;100683.00;;;;4890126;28;115308;-61
2022/08/22 07:39:23;;;;;;;2.20;2.00;;;18.10;99.90;18.50;100689.00;;;;4906345;28;93889;-60
2022/08/22 07:42:00;;;;;;;2.38;2.00;;;18.30;99.90;18.70;100688.00;;;;4889847;28;92886;-61
2022/08/22 07:44:50;;;;;;;4.60;2.40;;;18.40;99.90;18.90;100682.00;;;;4891004;28;93120;-61
2022/08/22 07:47:21;;;;;;;2.03;1.90;;;18.60;99.90;19.00;100687.00;;;;4895048;28;109726;-60
2022/08/22 07:49:57;;;;;;;5.95;2.25;;;18.80;99.90;19.20;100698.00;;;;4891311;28;93886;-61
2022/08/22 07:52:29;;;;;;;3.22;1.98;;;18.90;99.90;19.30;100698.00;;;;4902059;28;92982;-61
2022/08/22 07:55:19;;;;;;;3.85;2.58;;;19.00;99.90;19.40;100693.00;;;;4892626;28;101834;-59
2022/08/22 07:57:54;;;;;;;2.35;2.15;;;19.20;99.90;19.60;100691.00;;;;4896557;28;92346;-58
2022/08/22 08:00:22;;;;;;;2.67;2.17;;;19.30;99.90;19.70;100700.00;;;;4903501;28;93036;-59
2022/08/22 08:03:01;;;;;;;2.05;1.95;;;19.50;99.90;19.80;100691.00;;;;4890637;28;98761;-58
2022/08/22 08:05:35;;;;;;;7.22;2.38;;;19.60;99.90;20.00;100691.00;;;;4892233;28;93817;-62
2022/08/22 08:08:13;;;;;;;2.85;2.55;;;19.70;99.90;20.10;100693.00;;;;4904539;28;93702;-58
2022/08/22 08:10:39;;;;;;;2.58;2.22;;;19.90;99.90;20.30;100691.00;;;;4891074;28;96320;-58
2022/08/22 08:13:20;;;;;;;2.72;2.28;;;20.00;99.90;20.40;100695.00;;;;4893266;28;92695;-59
2022/08/22 08:15:48;;;;;;;1.85;1.70;;;20.20;99.90;20.60;100694.00;;;;4894663;28;93038;-61
2022/08/22 08:18:22;;;;;;;1.90;1.77;;;20.30;99.90;20.80;100692.00;;;;4885330;28;121299;-57
2022/08/22 08:21:00;;;;;;;5.97;2.38;;;20.40;99.90;20.90;100694.00;;;;4891694;28;93008;-61
2022/08/22 08:23:34;;;;;;;2.45;1.77;;;20.70;99.90;21.10;100700.00;;;;4908654;28;92351;-59
2022/08/22 08:26:14;;;;;;;3.85;2.28;;;20.80;99.90;21.20;100699.00;;;;4895101;28;92851;-57
2022/08/22 08:28:51;;;;;;;3.92;1.63;;;20.90;99.90;21.30;100701.00;;;;4909393;28;94347;-59
2022/08/22 08:31:36;;;;;;;2.67;2.03;;;21.00;99.90;21.40;100693.00;;;;4895591;28;93957;-59
2022/08/22 08:34:15;;;;;;;2.00;1.70;;;21.20;99.90;21.50;100695.00;;;;4895084;28;92865;-58
2022/08/22 08:36:52;;;;;;;5.80;1.70;;;21.20;99.90;21.60;100707.00;;;;4892527;28;92924;-61
2022/08/22 08:39:34;;;;;;;2.03;1.83;;;21.30;99.90;21.70;100710.00;;;;4894466;28;93169;-61
2022/08/22 08:46:28;;;;;;;2.00;1.73;;;21.50;99.90;22.00;100697.00;;;;4892555;28;92995;-62
2022/08/22 08:49:23;;;;;;;4.90;1.30;;;21.70;99.90;22.20;100696.00;;;;4894857;28;93200;-60
2022/08/22 08:52:13;;;;;;;3.08;1.25;;;21.90;99.90;22.30;100699.00;;;;4895005;28;105950;-60
2022/08/22 08:54:58;;;;;;;1.05;1.02;;;22.00;99.90;22.50;100701.00;;;;4895363;28;92932;-59
2022/08/22 08:58:02;;;;;;;2.05;1.33;;;22.10;99.90;22.60;100698.00;;;;4895503;28;93067;-59
2022/08/22 09:01:15;;;;;;;1.40;1.17;;;22.30;99.90;22.80;100686.00;;;;4884312;28;94323;-60
2022/08/22 09:04:03;;;;;;;2.38;1.15;;;22.40;99.90;22.90;100694.00;;;;4893113;28;93005;-59
2022/08/22 09:07:01;;;;;;;4.00;1.20;;;22.60;99.90;22.90;100690.00;;;;4894790;28;93734;-59
2022/08/22 09:09:56;;;;;;;2.05;1.00;;;22.60;99.80;22.90;100691.00;;;;4892130;28;92832;-60
2022/08/22 09:12:49;;;;;;;0.88;0.82;;;22.70;99.00;23.00;100695.00;;;;4895153;28;93101;-61
2022/08/22 09:15:47;;;;;;;2.72;0.70;;;22.70;97.70;23.00;100692.00;;;;4894355;28;92760;-57
2022/08/22 09:18:46;;;;;;;1.38;0.90;;;22.70;95.80;23.10;100699.00;;;;4894414;28;110332;-60
2022/08/22 09:21:42;;;;;;;0.77;0.65;;;22.80;94.80;23.20;100702.00;;;;4894107;28;92104;-60
2022/08/22 09:24:26;;;;;;;1.77;0.95;;;22.90;93.40;23.30;100703.00;;;;4894648;28;92869;-59
2022/08/22 09:27:02;;;;;;;1.20;0.95;;;23.00;92.60;23.50;100697.00;;;;4892713;28;92881;-60
2022/08/22 09:29:48;;;;;;;3.00;0.75;;;23.10;92.70;23.70;100700.00;;;;4878458;28;93926;-60
2022/08/22 09:32:52;;;;;;;1.08;0.70;;;23.30;91.50;23.90;100701.00;;;;4882942;28;92892;-60
2022/08/22 09:35:57;;;;;;;1.65;1.35;;;23.60;91.10;24.20;100691.00;;;;4882673;28;92662;-59
2022/08/22 09:38:58;;;;;;;1.33;0.90;;;23.80;90.60;24.40;100699.00;;;;4894457;28;93801;-60
2022/08/22 09:41:24;;;;;;;1.45;1.15;;;24.00;87.20;24.60;100698.00;;;;4891373;28;93513;-60
2022/08/22 09:44:51;;;;;;;1.77;1.23;;;24.20;86.70;24.80;100699.00;;;;4896055;28;93338;-60
2022/08/22 09:47:29;;;;;;;1.00;0.95;;;24.40;83.60;24.90;100699.00;;;;4893825;28;92849;-61
2022/08/22 09:50:14;;;;;;;1.20;0.90;;;24.50;81.90;24.90;100703.00;;;;4892788;28;93329;-60
2022/08/22 09:53:10;;;;;;;0.70;0.70;;;24.50;79.80;24.90;100706.00;;;;4892708;28;103357;-61
2022/08/22 09:56:02;;;;;;;0.60;0.60;;;24.50;80.80;24.80;100705.00;;;;4908735;28;92860;-60
2022/08/22 09:58:34;;;;;;;0.60;0.60;;;24.60;77.80;24.90;100703.00;;;;4892488;28;93740;-60
2022/08/22 10:01:12;;;;;;;1.20;0.73;;;24.60;77.80;24.90;100702.00;;;;4894359;28;104282;-60
2022/08/22 10:04:05;;;;;;;1.05;0.63;;;24.60;77.70;25.00;100697.00;;;;4892426;28;92946;-61
2022/08/22 10:06:45;;;;;;;11.77;1.02;;;24.60;76.70;25.00;100696.00;;;;4894880;28;93188;-61
2022/08/22 10:09:31;;;;;;;0.73;0.70;;;24.70;76.80;25.00;100691.00;;;;4892763;28;92943;-61
2022/08/22 10:12:10;;;;;;;2.53;1.55;;;24.70;76.30;25.00;100697.00;;;;4906323;28;112140;-61
2022/08/22 10:15:30;;;;;;;0.60;0.60;;;24.70;75.80;24.90;100700.00;;;;4893033;28;93027;-60
2022/08/22 10:18:22;;;;;;;1.40;1.20;;;24.70;71.80;24.80;100694.00;;;;4851718;28;98616;-59
2022/08/22 10:21:11;;;;;;;1.15;0.70;;;24.60;72.00;24.80;100698.00;;;;4893411;28;93217;-59
2022/08/22 10:24:38;;;;;;;1.40;0.80;;;24.50;72.00;24.70;100696.00;;;;4890726;28;93504;-60
2022/08/22 10:27:19;;;;;;;1.20;1.08;;;24.40;71.80;24.70;100702.00;;;;4813847;28;93939;-58
2022/08/22 10:30:09;;;;;;;1.70;1.30;;;24.40;71.90;24.60;100707.00;;;;4878654;28;93094;-60
2022/08/22 10:32:44;;;;;;;0.57;0.57;;;24.40;71.20;24.70;100712.00;;;;4892765;28;101928;-61
2022/08/22 10:35:23;;;;;;;0.70;0.70;;;24.30;71.40;24.70;100711.00;;;;4891599;28;93428;-60
2022/08/22 10:38:10;;;;;;;2.25;1.13;;;24.30;70.30;24.70;100716.00;;;;4891912;28;92930;-60
2022/08/22 10:41:03;;;;;;;2.30;1.15;;;24.30;70.00;24.90;100710.00;;;;4894216;28;97002;-60
2022/08/22 10:43:54;;;;;;;2.92;1.08;;;24.50;71.20;25.20;100720.00;;;;4893169;28;92895;-61
2022/08/22 10:46:35;;;;;;;1.48;1.15;;;24.70;70.90;25.40;100724.00;;;;4893458;28;112542;-62
2022/08/22 10:49:07;;;;;;;0.80;0.80;;;25.00;67.40;25.50;100717.00;;;;4891968;28;98780;-61
2022/08/22 10:51:58;;;;;;;1.33;1.10;;;25.10;67.50;25.70;100719.00;;;;4891298;28;101068;-60
2022/08/22 10:55:06;;;;;;;1.40;1.20;;;25.20;67.50;25.90;100714.00;;;;4889819;28;94117;-61
2022/08/22 10:58:10;;;;;;;1.40;0.90;;;25.40;65.60;25.90;100720.00;;;;4907350;28;94296;-61
2022/08/22 11:00:58;;;;;;;3.70;1.35;;;25.50;65.70;25.70;100714.00;;;;4888822;28;93090;-60
2022/08/22 11:04:04;;;;;;;1.17;1.08;;;25.50;64.50;25.70;100724.00;;;;4901268;28;93228;-61
2022/08/22 11:06:39;;;;;;;0.85;0.85;;;25.40;65.30;25.70;100714.00;;;;4893855;28;92959;-60
2022/08/22 11:09:22;;;;;;;1.17;0.90;;;25.40;65.20;25.80;100721.00;;;;4892112;28;93081;-61
2022/08/22 11:12:24;;;;;;;1.38;0.85;;;25.40;65.20;25.90;100728.00;;;;4889964;28;114147;-61
2022/08/22 11:15:17;;;;;;;1.65;1.17;;;25.50;66.60;26.00;100734.00;;;;4908692;28;96438;-61
2022/08/22 11:18:20;;;;;;;0.55;0.55;;;25.60;66.40;26.00;100720.00;;;;4890624;28;92981;-59
2022/08/22 11:20:58;;;;;;;0.65;0.65;;;25.60;64.40;25.90;100723.00;;;;4893084;28;94899;-61
2022/08/22 11:23:41;;;;;;;1.10;0.93;;;25.60;63.40;25.70;100712.00;;;;4905228;28;93971;-61
2022/08/22 11:26:21;;;;;;;1.02;1.02;;;25.40;62.50;25.50;100729.00;;;;4907244;28;93043;-62
2022/08/22 11:29:02;;;;;;;1.40;0.90;;;25.20;61.80;25.30;100729.00;;;;4893958;28;93241;-60
2022/08/22 11:31:51;;;;;;;2.60;0.82;;;25.00;63.00;25.20;100732.00;;;;4888599;28;93322;-61
2022/08/22 11:34:54;;;;;;;1.55;1.20;;;24.90;63.60;25.20;100732.00;;;;4903401;28;113367;-62
2022/08/22 11:37:44;;;;;;;0.95;0.73;;;24.90;64.30;25.10;100737.00;;;;4884680;28;93168;-61
2022/08/22 11:40:40;;;;;;;0.98;0.98;;;24.80;63.50;25.10;100735.00;;;;4891390;28;92883;-61
2022/08/22 11:43:37;;;;;;;1.90;1.10;;;24.80;63.50;25.10;100741.00;;;;4891343;28;92663;-61
2022/08/22 11:46:38;;;;;;;5.00;1.20;;;24.80;63.40;25.10;100737.00;;;;4893659;28;92952;-61
2022/08/22 11:49:45;;;;;;;0.98;0.63;;;24.80;63.60;25.10;100739.00;;;;4893221;28;92735;-61
2022/08/22 11:52:33;;;;;;;0.75;0.52;;;24.80;63.80;25.10;100739.00;;;;4894141;28;93820;-62
2022/08/22 11:55:18;;;;;;;2.03;1.33;;;24.80;62.90;25.10;100730.00;;;;4894793;28;110250;-61
2022/08/22 11:58:21;;;;;;;5.75;0.95;;;24.70;63.40;25.10;100741.00;;;;4895703;28;95459;-61
2022/08/22 12:01:13;;;;;;;1.70;0.90;;;24.80;63.40;24.90;100741.00;;;;4892678;28;92973;-62
2022/08/22 12:04:00;;;;;;;1.33;0.90;;;24.60;62.30;24.80;100743.00;;;;4909578;28;99387;-61
2022/08/22 12:06:38;;;;;;;3.70;1.10;;;24.50;62.00;24.70;100739.00;;;;4892949;28;93233;-60
2022/08/22 12:09:20;;;;;;;1.08;0.68;;;24.40;62.70;24.80;100740.00;;;;4896391;28;92884;-61
2022/08/22 12:12:23;;;;;;;1.35;0.82;;;24.40;62.70;25.00;100730.00;;;;4907042;28;92042;-61
2022/08/22 12:15:18;;;;;;;2.30;1.20;;;24.60;62.90;25.00;100735.00;;;;4893753;28;92927;-61
2022/08/22 12:18:19;;;;;;;3.70;0.95;;;24.60;61.00;25.10;100723.00;;;;4893631;28;94204;-61
2022/08/22 12:21:18;;;;;;;2.70;0.85;;;24.80;61.40;25.30;100722.00;;;;4891522;28;94012;-60
2022/08/22 12:24:18;;;;;;;2.40;0.65;;;24.80;61.50;25.40;100731.00;;;;4894857;28;94166;-60
2022/08/22 12:27:08;;;;;;;0.68;0.68;;;25.00;61.40;25.60;100723.00;;;;4894185;28;93175;-61